sensor_id;sensor_type;location;lat;lon;timestamp;temperature;humidity
68026;SHT31;54819;48.030;14.710;2022-11-25T00:01:21;5.16;85.85
68026;SHT31;54819;48.030;14.710;2022-11-25T00:03:52;5.15;86.01
68026;SHT31;54819;48.030;14.710;2022-11-25T00:06:26;5.15;86.09
68026;SHT31;54819;48.030;14.710;2022-11-25T00:09:19;5.16;86.17
68026;SHT31;54819;48.030;14.710;2022-11-25T00:11:46;5.20;86.35
68026;SHT31;54819;48.030;14.710;2022-11-25T00:14:13;5.26;86.48
68026;SHT31;54819;48.030;14.710;2022-11-25T00:16:41;5.30;86.51
68026;SHT31;54819;48.030;14.710;2022-11-25T00:19:14;5.33;86.60
68026;SHT31;54819;48.030;14.710;2022-11-25T00:21:41;5.36;86.59
68026;SHT31;54819;48.030;14.710;2022-11-25T00:24:07;5.40;86.49
68026;SHT31;54819;48.030;14.710;2022-11-25T00:26:36;5.43;86.50
68026;SHT31;54819;48.030;14.710;2022-11-25T00:29:04;5.44;86.54
68026;SHT31;54819;48.030;14.710;2022-11-25T00:31:34;5.46;86.44
68026;SHT31;54819;48.030;14.710;2022-11-25T00:34:03;5.52;86.44
68026;SHT31;54819;48.030;14.710;2022-11-25T00:36:32;5.57;86.51
68026;SHT31;54819;48.030;14.710;2022-11-25T00:39:03;5.62;86.51
68026;SHT31;54819;48.030;14.710;2022-11-25T00:41:35;5.67;86.54
68026;SHT31;54819;48.030;14.710;2022-11-25T00:44:21;5.74;86.58
68026;SHT31;54819;48.030;14.710;2022-11-25T00:49:48;5.79;86.41
68026;SHT31;54819;48.030;14.710;2022-11-25T00:52:21;5.78;86.30
68026;SHT31;54819;48.030;14.710;2022-11-25T00:54:51;5.74;86.21
68026;SHT31;54819;48.030;14.710;2022-11-25T00:57:20;5.68;86.12
68026;SHT31;54819;48.030;14.710;2022-11-25T00:59:49;5.62;86.12
68026;SHT31;54819;48.030;14.710;2022-11-25T01:02:19;5.54;86.43
68026;SHT31;54819;48.030;14.710;2022-11-25T01:04:46;5.47;86.41
68026;SHT31;54819;48.030;14.710;2022-11-25T01:07:14;5.41;86.48
68026;SHT31;54819;48.030;14.710;2022-11-25T01:09:42;5.37;86.57
68026;SHT31;54819;48.030;14.710;2022-11-25T01:12:09;5.33;86.67
68026;SHT31;54819;48.030;14.710;2022-11-25T01:14:36;5.22;86.46
68026;SHT31;54819;48.030;14.710;2022-11-25T01:17:03;5.03;86.55
68026;SHT31;54819;48.030;14.710;2022-11-25T01:19:31;4.80;86.71
68026;SHT31;54819;48.030;14.710;2022-11-25T01:21:58;4.62;86.96
68026;SHT31;54819;48.030;14.710;2022-11-25T01:24:25;4.50;87.11
68026;SHT31;54819;48.030;14.710;2022-11-25T01:26:53;4.41;87.18
68026;SHT31;54819;48.030;14.710;2022-11-25T01:29:21;4.40;87.36
68026;SHT31;54819;48.030;14.710;2022-11-25T01:31:53;4.38;87.94
68026;SHT31;54819;48.030;14.710;2022-11-25T01:34:22;4.37;88.23
68026;SHT31;54819;48.030;14.710;2022-11-25T01:36:55;4.41;88.07
68026;SHT31;54819;48.030;14.710;2022-11-25T01:39:23;4.46;87.99
68026;SHT31;54819;48.030;14.710;2022-11-25T01:41:58;4.54;87.90
68026;SHT31;54819;48.030;14.710;2022-11-25T01:44:26;4.61;87.90
68026;SHT31;54819;48.030;14.710;2022-11-25T01:52:35;4.73;87.84
68026;SHT31;54819;48.030;14.710;2022-11-25T01:55:12;4.73;87.83
68026;SHT31;54819;48.030;14.710;2022-11-25T02:00:24;4.73;87.71
68026;SHT31;54819;48.030;14.710;2022-11-25T02:02:52;4.75;87.67
68026;SHT31;54819;48.030;14.710;2022-11-25T02:05:25;4.75;87.63
68026;SHT31;54819;48.030;14.710;2022-11-25T02:08:24;4.70;87.70
68026;SHT31;54819;48.030;14.710;2022-11-25T02:10:53;4.66;87.71
68026;SHT31;54819;48.030;14.710;2022-11-25T02:13:21;4.63;87.79
68026;SHT31;54819;48.030;14.710;2022-11-25T02:15:50;4.59;87.81
68026;SHT31;54819;48.030;14.710;2022-11-25T02:18:17;4.55;87.80
68026;SHT31;54819;48.030;14.710;2022-11-25T02:20:44;4.55;87.79
68026;SHT31;54819;48.030;14.710;2022-11-25T02:26:08;4.56;87.68
68026;SHT31;54819;48.030;14.710;2022-11-25T02:28:35;4.58;87.59
68026;SHT31;54819;48.030;14.710;2022-11-25T02:31:05;4.61;87.51
68026;SHT31;54819;48.030;14.710;2022-11-25T02:33:33;4.64;87.50
68026;SHT31;54819;48.030;14.710;2022-11-25T02:36:02;4.67;87.52
68026;SHT31;54819;48.030;14.710;2022-11-25T02:38:37;4.71;87.58
68026;SHT31;54819;48.030;14.710;2022-11-25T02:43:54;4.74;87.69
68026;SHT31;54819;48.030;14.710;2022-11-25T02:46:22;4.72;87.72
68026;SHT31;54819;48.030;14.710;2022-11-25T02:48:52;4.68;87.73
68026;SHT31;54819;48.030;14.710;2022-11-25T02:51:38;4.62;87.70
68026;SHT31;54819;48.030;14.710;2022-11-25T02:54:10;4.57;87.70
68026;SHT31;54819;48.030;14.710;2022-11-25T02:56:38;4.50;87.66
68026;SHT31;54819;48.030;14.710;2022-11-25T02:59:06;4.43;87.60
68026;SHT31;54819;48.030;14.710;2022-11-25T03:01:34;4.38;87.65
68026;SHT31;54819;48.030;14.710;2022-11-25T03:04:05;4.37;87.60
68026;SHT31;54819;48.030;14.710;2022-11-25T03:06:32;4.31;87.68
68026;SHT31;54819;48.030;14.710;2022-11-25T03:09:00;4.26;87.76
68026;SHT31;54819;48.030;14.710;2022-11-25T03:11:28;4.22;87.84
68026;SHT31;54819;48.030;14.710;2022-11-25T03:14:14;4.19;88.03
68026;SHT31;54819;48.030;14.710;2022-11-25T03:16:41;4.18;88.10
68026;SHT31;54819;48.030;14.710;2022-11-25T03:19:08;4.18;88.21
68026;SHT31;54819;48.030;14.710;2022-11-25T03:21:35;4.15;88.22
68026;SHT31;54819;48.030;14.710;2022-11-25T03:24:02;4.11;88.18
68026;SHT31;54819;48.030;14.710;2022-11-25T03:26:29;4.06;88.16
68026;SHT31;54819;48.030;14.710;2022-11-25T03:28:56;4.02;88.29
68026;SHT31;54819;48.030;14.710;2022-11-25T03:31:23;3.98;88.44
68026;SHT31;54819;48.030;14.710;2022-11-25T03:33:50;3.96;88.36
68026;SHT31;54819;48.030;14.710;2022-11-25T03:36:19;3.92;88.30
68026;SHT31;54819;48.030;14.710;2022-11-25T03:38:46;3.88;88.31
68026;SHT31;54819;48.030;14.710;2022-11-25T03:41:13;3.82;88.33
68026;SHT31;54819;48.030;14.710;2022-11-25T03:43:40;3.79;88.37
68026;SHT31;54819;48.030;14.710;2022-11-25T03:46:07;3.74;88.41
68026;SHT31;54819;48.030;14.710;2022-11-25T03:48:34;3.69;88.39
68026;SHT31;54819;48.030;14.710;2022-11-25T03:51:01;3.63;88.35
68026;SHT31;54819;48.030;14.710;2022-11-25T03:53:28;3.55;88.30
68026;SHT31;54819;48.030;14.710;2022-11-25T03:55:56;3.50;88.28
68026;SHT31;54819;48.030;14.710;2022-11-25T03:58:23;3.45;88.31
68026;SHT31;54819;48.030;14.710;2022-11-25T04:00:50;3.41;88.36
68026;SHT31;54819;48.030;14.710;2022-11-25T04:03:17;3.38;88.48
68026;SHT31;54819;48.030;14.710;2022-11-25T04:05:44;3.35;88.60
68026;SHT31;54819;48.030;14.710;2022-11-25T04:08:11;3.35;88.74
68026;SHT31;54819;48.030;14.710;2022-11-25T04:10:39;3.33;88.79
68026;SHT31;54819;48.030;14.710;2022-11-25T04:13:06;3.31;88.84
68026;SHT31;54819;48.030;14.710;2022-11-25T04:15:36;3.27;88.96
68026;SHT31;54819;48.030;14.710;2022-11-25T04:18:03;3.23;89.09
68026;SHT31;54819;48.030;14.710;2022-11-25T04:20:30;3.21;89.04
68026;SHT31;54819;48.030;14.710;2022-11-25T04:23:01;3.21;89.12
68026;SHT31;54819;48.030;14.710;2022-11-25T04:25:28;3.23;88.99
68026;SHT31;54819;48.030;14.710;2022-11-25T04:27:56;3.24;89.02
68026;SHT31;54819;48.030;14.710;2022-11-25T04:30:27;3.14;89.42
68026;SHT31;54819;48.030;14.710;2022-11-25T04:32:54;3.07;89.64
68026;SHT31;54819;48.030;14.710;2022-11-25T04:35:21;3.01;89.70
68026;SHT31;54819;48.030;14.710;2022-11-25T04:37:51;2.99;90.31
68026;SHT31;54819;48.030;14.710;2022-11-25T04:40:19;2.99;91.21
68026;SHT31;54819;48.030;14.710;2022-11-25T04:42:52;3.01;91.79
68026;SHT31;54819;48.030;14.710;2022-11-25T04:45:28;3.00;91.57
68026;SHT31;54819;48.030;14.710;2022-11-25T04:48:15;2.99;91.13
68026;SHT31;54819;48.030;14.710;2022-11-25T04:50:42;2.97;90.76
68026;SHT31;54819;48.030;14.710;2022-11-25T04:53:11;2.93;90.53
68026;SHT31;54819;48.030;14.710;2022-11-25T04:55:38;2.87;90.41
68026;SHT31;54819;48.030;14.710;2022-11-25T04:58:10;2.82;90.08
68026;SHT31;54819;48.030;14.710;2022-11-25T05:00:38;2.76;89.90
68026;SHT31;54819;48.030;14.710;2022-11-25T05:03:06;2.73;89.85
68026;SHT31;54819;48.030;14.710;2022-11-25T05:05:34;2.75;89.97
68026;SHT31;54819;48.030;14.710;2022-11-25T05:08:04;2.74;90.16
68026;SHT31;54819;48.030;14.710;2022-11-25T05:10:31;2.73;90.28
68026;SHT31;54819;48.030;14.710;2022-11-25T05:12:58;2.72;90.20
68026;SHT31;54819;48.030;14.710;2022-11-25T05:15:25;2.68;90.40
68026;SHT31;54819;48.030;14.710;2022-11-25T05:17:52;2.68;90.34
68026;SHT31;54819;48.030;14.710;2022-11-25T05:20:31;2.69;90.32
68026;SHT31;54819;48.030;14.710;2022-11-25T05:22:58;2.68;90.29
68026;SHT31;54819;48.030;14.710;2022-11-25T05:25:25;2.66;90.17
68026;SHT31;54819;48.030;14.710;2022-11-25T05:28:04;2.62;90.08
68026;SHT31;54819;48.030;14.710;2022-11-25T05:30:31;2.60;90.01
68026;SHT31;54819;48.030;14.710;2022-11-25T05:32:58;2.59;90.00
68026;SHT31;54819;48.030;14.710;2022-11-25T05:35:25;2.56;90.06
68026;SHT31;54819;48.030;14.710;2022-11-25T05:37:52;2.57;90.10
68026;SHT31;54819;48.030;14.710;2022-11-25T05:40:19;2.59;91.11
68026;SHT31;54819;48.030;14.710;2022-11-25T05:43:00;2.61;90.88
68026;SHT31;54819;48.030;14.710;2022-11-25T05:45:28;2.63;90.78
68026;SHT31;54819;48.030;14.710;2022-11-25T05:47:56;2.65;90.65
68026;SHT31;54819;48.030;14.710;2022-11-25T05:50:24;2.66;90.70
68026;SHT31;54819;48.030;14.710;2022-11-25T05:53:12;2.66;90.70
68026;SHT31;54819;48.030;14.710;2022-11-25T05:55:42;2.66;90.68
68026;SHT31;54819;48.030;14.710;2022-11-25T05:58:20;2.64;90.57
68026;SHT31;54819;48.030;14.710;2022-11-25T06:00:48;2.60;90.50
68026;SHT31;54819;48.030;14.710;2022-11-25T06:03:18;2.56;90.57
68026;SHT31;54819;48.030;14.710;2022-11-25T06:05:45;2.57;90.56
68026;SHT31;54819;48.030;14.710;2022-11-25T06:08:12;2.61;90.67
68026;SHT31;54819;48.030;14.710;2022-11-25T06:10:39;2.64;90.86
68026;SHT31;54819;48.030;14.710;2022-11-25T06:13:07;2.69;90.85
68026;SHT31;54819;48.030;14.710;2022-11-25T06:15:39;2.76;91.21
68026;SHT31;54819;48.030;14.710;2022-11-25T06:18:09;2.85;91.27
68026;SHT31;54819;48.030;14.710;2022-11-25T06:20:38;2.94;91.11
68026;SHT31;54819;48.030;14.710;2022-11-25T06:23:05;3.00;91.00
68026;SHT31;54819;48.030;14.710;2022-11-25T06:25:34;3.02;90.99
68026;SHT31;54819;48.030;14.710;2022-11-25T06:28:02;3.03;90.91
68026;SHT31;54819;48.030;14.710;2022-11-25T06:30:39;3.03;90.83
68026;SHT31;54819;48.030;14.710;2022-11-25T06:33:29;3.04;90.80
68026;SHT31;54819;48.030;14.710;2022-11-25T06:35:58;3.02;90.68
68026;SHT31;54819;48.030;14.710;2022-11-25T06:38:25;3.01;90.49
68026;SHT31;54819;48.030;14.710;2022-11-25T06:40:51;3.01;90.39
68026;SHT31;54819;48.030;14.710;2022-11-25T06:43:24;3.02;90.35
68026;SHT31;54819;48.030;14.710;2022-11-25T06:45:51;3.04;90.35
68026;SHT31;54819;48.030;14.710;2022-11-25T06:48:18;3.05;90.28
68026;SHT31;54819;48.030;14.710;2022-11-25T06:50:53;3.05;90.18
68026;SHT31;54819;48.030;14.710;2022-11-25T06:53:22;3.01;90.15
68026;SHT31;54819;48.030;14.710;2022-11-25T06:56:00;3.02;90.16
68026;SHT31;54819;48.030;14.710;2022-11-25T06:58:39;3.04;90.01
68026;SHT31;54819;48.030;14.710;2022-11-25T07:01:10;3.03;89.88
68026;SHT31;54819;48.030;14.710;2022-11-25T07:03:40;2.96;89.27
68026;SHT31;54819;48.030;14.710;2022-11-25T07:06:14;2.85;89.36
68026;SHT31;54819;48.030;14.710;2022-11-25T07:08:43;2.82;89.32
68026;SHT31;54819;48.030;14.710;2022-11-25T07:11:15;2.80;89.27
68026;SHT31;54819;48.030;14.710;2022-11-25T07:13:47;2.81;89.28
68026;SHT31;54819;48.030;14.710;2022-11-25T07:16:17;2.84;89.38
68026;SHT31;54819;48.030;14.710;2022-11-25T07:18:45;2.84;89.50
68026;SHT31;54819;48.030;14.710;2022-11-25T07:21:13;2.88;89.62
68026;SHT31;54819;48.030;14.710;2022-11-25T07:23:44;2.93;89.62
68026;SHT31;54819;48.030;14.710;2022-11-25T07:26:13;2.91;89.73
68026;SHT31;54819;48.030;14.710;2022-11-25T07:28:53;2.86;90.12
68026;SHT31;54819;48.030;14.710;2022-11-25T07:31:28;2.85;89.94
68026;SHT31;54819;48.030;14.710;2022-11-25T07:34:04;2.83;89.91
68026;SHT31;54819;48.030;14.710;2022-11-25T07:36:36;2.72;90.06
68026;SHT31;54819;48.030;14.710;2022-11-25T07:39:05;2.54;90.01
68026;SHT31;54819;48.030;14.710;2022-11-25T07:41:37;2.50;89.62
68026;SHT31;54819;48.030;14.710;2022-11-25T07:44:06;2.48;89.68
68026;SHT31;54819;48.030;14.710;2022-11-25T07:46:48;2.54;89.84
68026;SHT31;54819;48.030;14.710;2022-11-25T07:49:17;2.63;89.89
68026;SHT31;54819;48.030;14.710;2022-11-25T07:51:49;2.72;89.86
68026;SHT31;54819;48.030;14.710;2022-11-25T07:54:20;2.78;89.89
68026;SHT31;54819;48.030;14.710;2022-11-25T07:56:48;2.84;89.80
68026;SHT31;54819;48.030;14.710;2022-11-25T07:59:17;2.86;89.73
68026;SHT31;54819;48.030;14.710;2022-11-25T08:01:53;2.87;89.62
68026;SHT31;54819;48.030;14.710;2022-11-25T08:04:21;2.89;89.55
68026;SHT31;54819;48.030;14.710;2022-11-25T08:06:50;2.90;89.47
68026;SHT31;54819;48.030;14.710;2022-11-25T08:09:19;2.92;89.32
68026;SHT31;54819;48.030;14.710;2022-11-25T08:11:49;2.99;89.22
68026;SHT31;54819;48.030;14.710;2022-11-25T08:14:17;3.05;89.21
68026;SHT31;54819;48.030;14.710;2022-11-25T08:16:44;3.09;89.30
68026;SHT31;54819;48.030;14.710;2022-11-25T08:19:13;3.16;89.56
68026;SHT31;54819;48.030;14.710;2022-11-25T08:21:43;3.28;89.43
68026;SHT31;54819;48.030;14.710;2022-11-25T08:24:17;3.39;89.31
68026;SHT31;54819;48.030;14.710;2022-11-25T08:26:46;3.51;89.21
68026;SHT31;54819;48.030;14.710;2022-11-25T08:29:14;3.60;89.13
68026;SHT31;54819;48.030;14.710;2022-11-25T08:31:43;3.65;89.10
68026;SHT31;54819;48.030;14.710;2022-11-25T08:34:15;3.69;89.06
68026;SHT31;54819;48.030;14.710;2022-11-25T08:36:48;3.73;89.00
68026;SHT31;54819;48.030;14.710;2022-11-25T08:39:16;3.78;88.91
68026;SHT31;54819;48.030;14.710;2022-11-25T08:42:07;3.80;88.80
68026;SHT31;54819;48.030;14.710;2022-11-25T08:44:34;3.84;88.71
68026;SHT31;54819;48.030;14.710;2022-11-25T08:47:01;3.95;88.62
68026;SHT31;54819;48.030;14.710;2022-11-25T08:49:29;4.03;88.57
68026;SHT31;54819;48.030;14.710;2022-11-25T08:52:01;4.09;88.51
68026;SHT31;54819;48.030;14.710;2022-11-25T08:54:28;4.11;88.56
68026;SHT31;54819;48.030;14.710;2022-11-25T08:56:56;4.18;88.60
68026;SHT31;54819;48.030;14.710;2022-11-25T08:59:23;4.22;88.58
68026;SHT31;54819;48.030;14.710;2022-11-25T09:01:50;4.24;88.53
68026;SHT31;54819;48.030;14.710;2022-11-25T09:04:17;4.21;88.42
68026;SHT31;54819;48.030;14.710;2022-11-25T09:06:44;4.21;88.38
68026;SHT31;54819;48.030;14.710;2022-11-25T09:09:11;4.22;88.38
68026;SHT31;54819;48.030;14.710;2022-11-25T09:11:38;4.21;88.29
68026;SHT31;54819;48.030;14.710;2022-11-25T09:14:06;4.23;88.34
68026;SHT31;54819;48.030;14.710;2022-11-25T09:16:33;4.23;88.52
68026;SHT31;54819;48.030;14.710;2022-11-25T09:19:00;4.25;88.54
68026;SHT31;54819;48.030;14.710;2022-11-25T09:21:28;4.31;88.60
68026;SHT31;54819;48.030;14.710;2022-11-25T09:23:55;4.39;88.57
68026;SHT31;54819;48.030;14.710;2022-11-25T09:26:23;4.46;88.50
68026;SHT31;54819;48.030;14.710;2022-11-25T09:28:53;4.49;88.31
68026;SHT31;54819;48.030;14.710;2022-11-25T09:31:21;4.55;88.29
68026;SHT31;54819;48.030;14.710;2022-11-25T09:33:48;4.59;88.21
68026;SHT31;54819;48.030;14.710;2022-11-25T09:36:16;4.68;88.06
68026;SHT31;54819;48.030;14.710;2022-11-25T09:38:45;4.76;87.94
68026;SHT31;54819;48.030;14.710;2022-11-25T09:50:32;5.33;87.57
68026;SHT31;54819;48.030;14.710;2022-11-25T09:59:06;5.58;87.32
68026;SHT31;54819;48.030;14.710;2022-11-25T10:01:51;5.64;86.87
68026;SHT31;54819;48.030;14.710;2022-11-25T10:04:32;5.78;86.87
68026;SHT31;54819;48.030;14.710;2022-11-25T10:07:10;5.77;86.35
68026;SHT31;54819;48.030;14.710;2022-11-25T10:09:50;6.04;86.36
68026;SHT31;54819;48.030;14.710;2022-11-25T10:12:22;6.16;86.04
68026;SHT31;54819;48.030;14.710;2022-11-25T10:14:58;6.18;86.01
68026;SHT31;54819;48.030;14.710;2022-11-25T10:17:43;6.17;85.58
68026;SHT31;54819;48.030;14.710;2022-11-25T10:20:21;6.08;85.20
68026;SHT31;54819;48.030;14.710;2022-11-25T10:22:54;6.25;86.08
68026;SHT31;54819;48.030;14.710;2022-11-25T10:25:29;6.30;86.23
68026;SHT31;54819;48.030;14.710;2022-11-25T10:28:18;6.27;86.29
68026;SHT31;54819;48.030;14.710;2022-11-25T10:33:38;6.36;86.22
68026;SHT31;54819;48.030;14.710;2022-11-25T10:36:15;6.37;85.78
68026;SHT31;54819;48.030;14.710;2022-11-25T10:38:55;6.29;85.88
68026;SHT31;54819;48.030;14.710;2022-11-25T10:41:27;6.28;85.37
68026;SHT31;54819;48.030;14.710;2022-11-25T10:44:00;6.26;85.58
68026;SHT31;54819;48.030;14.710;2022-11-25T10:46:31;6.29;85.58
68026;SHT31;54819;48.030;14.710;2022-11-25T10:52:22;6.36;85.89
68026;SHT31;54819;48.030;14.710;2022-11-25T10:54:57;6.42;86.03
68026;SHT31;54819;48.030;14.710;2022-11-25T10:57:40;6.52;85.74
68026;SHT31;54819;48.030;14.710;2022-11-25T11:00:42;6.52;85.17
68026;SHT31;54819;48.030;14.710;2022-11-25T11:05:49;6.50;85.09
68026;SHT31;54819;48.030;14.710;2022-11-25T11:08:20;6.50;84.66
68026;SHT31;54819;48.030;14.710;2022-11-25T11:11:19;6.57;84.88
68026;SHT31;54819;48.030;14.710;2022-11-25T11:13:49;6.62;84.97
68026;SHT31;54819;48.030;14.710;2022-11-25T11:16:36;6.72;85.26
68026;SHT31;54819;48.030;14.710;2022-11-25T11:19:19;6.79;85.21
68026;SHT31;54819;48.030;14.710;2022-11-25T11:21:48;6.86;84.99
68026;SHT31;54819;48.030;14.710;2022-11-25T11:24:27;6.89;84.27
68026;SHT31;54819;48.030;14.710;2022-11-25T11:27:21;6.98;84.81
68026;SHT31;54819;48.030;14.710;2022-11-25T11:30:37;7.05;84.70
68026;SHT31;54819;48.030;14.710;2022-11-25T11:36:24;7.20;84.65
68026;SHT31;54819;48.030;14.710;2022-11-25T11:47:29;7.54;84.64
68026;SHT31;54819;48.030;14.710;2022-11-25T12:02:11;7.84;83.45
68026;SHT31;54819;48.030;14.710;2022-11-25T12:05:23;7.87;83.38
68026;SHT31;54819;48.030;14.710;2022-11-25T12:10:50;8.00;83.34
68026;SHT31;54819;48.030;14.710;2022-11-25T12:13:32;8.09;83.55
68026;SHT31;54819;48.030;14.710;2022-11-25T12:16:16;8.18;83.70
68026;SHT31;54819;48.030;14.710;2022-11-25T12:19:20;8.22;83.37
68026;SHT31;54819;48.030;14.710;2022-11-25T12:22:03;8.28;83.26
68026;SHT31;54819;48.030;14.710;2022-11-25T12:24:39;8.26;82.17
68026;SHT31;54819;48.030;14.710;2022-11-25T12:27:30;8.18;82.06
68026;SHT31;54819;48.030;14.710;2022-11-25T12:32:55;8.03;82.35
68026;SHT31;54819;48.030;14.710;2022-11-25T12:35:33;7.97;81.82
68026;SHT31;54819;48.030;14.710;2022-11-25T12:38:44;7.89;82.06
68026;SHT31;54819;48.030;14.710;2022-11-25T12:41:52;7.83;82.08
68026;SHT31;54819;48.030;14.710;2022-11-25T12:47:27;7.97;82.43
68026;SHT31;54819;48.030;14.710;2022-11-25T12:49:54;7.93;81.92
68026;SHT31;54819;48.030;14.710;2022-11-25T12:55:22;7.90;82.05
68026;SHT31;54819;48.030;14.710;2022-11-25T13:10:13;7.88;82.67
68026;SHT31;54819;48.030;14.710;2022-11-25T13:13:14;7.80;82.34
68026;SHT31;54819;48.030;14.710;2022-11-25T13:15:56;7.82;83.04
68026;SHT31;54819;48.030;14.710;2022-11-25T13:18:28;7.85;82.91
68026;SHT31;54819;48.030;14.710;2022-11-25T13:21:14;7.83;82.62
68026;SHT31;54819;48.030;14.710;2022-11-25T13:23:53;7.75;82.41
68026;SHT31;54819;48.030;14.710;2022-11-25T13:31:54;7.58;83.02
68026;SHT31;54819;48.030;14.710;2022-11-25T13:34:31;7.54;83.05
68026;SHT31;54819;48.030;14.710;2022-11-25T13:37:01;7.55;83.38
68026;SHT31;54819;48.030;14.710;2022-11-25T13:42:51;7.53;83.50
68026;SHT31;54819;48.030;14.710;2022-11-25T13:45:28;7.49;83.36
68026;SHT31;54819;48.030;14.710;2022-11-25T13:50:48;7.45;83.44
68026;SHT31;54819;48.030;14.710;2022-11-25T13:53:36;7.44;83.51
68026;SHT31;54819;48.030;14.710;2022-11-25T14:01:38;7.40;84.00
68026;SHT31;54819;48.030;14.710;2022-11-25T14:04:13;7.39;84.11
68026;SHT31;54819;48.030;14.710;2022-11-25T14:09:52;7.27;84.25
68026;SHT31;54819;48.030;14.710;2022-11-25T14:12:55;7.21;84.24
68026;SHT31;54819;48.030;14.710;2022-11-25T14:26:56;6.95;84.70
68026;SHT31;54819;48.030;14.710;2022-11-25T14:31:59;6.87;84.99
68026;SHT31;54819;48.030;14.710;2022-11-25T14:34:42;6.84;85.05
68026;SHT31;54819;48.030;14.710;2022-11-25T14:40:20;6.75;85.03
68026;SHT31;54819;48.030;14.710;2022-11-25T14:43:20;6.61;85.06
68026;SHT31;54819;48.030;14.710;2022-11-25T14:48:43;6.49;85.08
68026;SHT31;54819;48.030;14.710;2022-11-25T14:51:11;6.44;85.05
68026;SHT31;54819;48.030;14.710;2022-11-25T14:56:20;6.36;85.30
68026;SHT31;54819;48.030;14.710;2022-11-25T14:58:53;6.31;85.45
68026;SHT31;54819;48.030;14.710;2022-11-25T15:01:30;6.27;85.63
68026;SHT31;54819;48.030;14.710;2022-11-25T15:04:01;6.23;85.73
68026;SHT31;54819;48.030;14.710;2022-11-25T15:06:42;6.20;85.80
68026;SHT31;54819;48.030;14.710;2022-11-25T15:09:20;6.18;85.80
68026;SHT31;54819;48.030;14.710;2022-11-25T15:11:50;6.14;85.80
68026;SHT31;54819;48.030;14.710;2022-11-25T15:14:27;6.09;85.76
68026;SHT31;54819;48.030;14.710;2022-11-25T15:19:58;5.95;85.76
68026;SHT31;54819;48.030;14.710;2022-11-25T15:22:36;5.92;85.86
68026;SHT31;54819;48.030;14.710;2022-11-25T15:25:11;5.88;85.96
68026;SHT31;54819;48.030;14.710;2022-11-25T15:27:45;5.85;86.09
68026;SHT31;54819;48.030;14.710;2022-11-25T15:30:16;5.83;86.23
68026;SHT31;54819;48.030;14.710;2022-11-25T15:32:50;5.81;86.35
68026;SHT31;54819;48.030;14.710;2022-11-25T15:35:22;5.78;86.37
68026;SHT31;54819;48.030;14.710;2022-11-25T15:37:51;5.75;86.35
68026;SHT31;54819;48.030;14.710;2022-11-25T15:40:39;5.71;86.34
68026;SHT31;54819;48.030;14.710;2022-11-25T15:43:24;5.63;86.48
68026;SHT31;54819;48.030;14.710;2022-11-25T15:45:56;5.50;87.22
68026;SHT31;54819;48.030;14.710;2022-11-25T15:48:31;5.41;87.42
68026;SHT31;54819;48.030;14.710;2022-11-25T15:54:05;5.29;88.89
68026;SHT31;54819;48.030;14.710;2022-11-25T15:56:39;5.27;88.85
68026;SHT31;54819;48.030;14.710;2022-11-25T16:10:24;5.17;88.63
68026;SHT31;54819;48.030;14.710;2022-11-25T16:15:52;5.21;88.41
68026;SHT31;54819;48.030;14.710;2022-11-25T16:18:39;5.22;88.51
68026;SHT31;54819;48.030;14.710;2022-11-25T16:29:38;5.34;88.49
68026;SHT31;54819;48.030;14.710;2022-11-25T16:32:20;5.39;88.48
68026;SHT31;54819;48.030;14.710;2022-11-25T16:34:50;5.41;88.47
68026;SHT31;54819;48.030;14.710;2022-11-25T16:37:17;5.41;88.55
68026;SHT31;54819;48.030;14.710;2022-11-25T16:39:44;5.39;88.55
68026;SHT31;54819;48.030;14.710;2022-11-25T16:42:15;5.36;88.44
68026;SHT31;54819;48.030;14.710;2022-11-25T16:44:46;5.35;88.42
68026;SHT31;54819;48.030;14.710;2022-11-25T16:47:17;5.36;88.38
68026;SHT31;54819;48.030;14.710;2022-11-25T16:49:47;5.36;88.44
68026;SHT31;54819;48.030;14.710;2022-11-25T16:52:14;5.35;88.42
68026;SHT31;54819;48.030;14.710;2022-11-25T16:54:41;5.34;88.53
68026;SHT31;54819;48.030;14.710;2022-11-25T16:57:12;5.28;88.74
68026;SHT31;54819;48.030;14.710;2022-11-25T16:59:44;5.24;88.97
68026;SHT31;54819;48.030;14.710;2022-11-25T17:02:20;5.18;89.20
68026;SHT31;54819;48.030;14.710;2022-11-25T17:04:48;5.15;89.18
68026;SHT31;54819;48.030;14.710;2022-11-25T17:07:17;5.16;89.09
68026;SHT31;54819;48.030;14.710;2022-11-25T17:10:00;5.13;88.96
68026;SHT31;54819;48.030;14.710;2022-11-25T17:12:29;5.14;88.88
68026;SHT31;54819;48.030;14.710;2022-11-25T17:15:00;5.12;88.73
68026;SHT31;54819;48.030;14.710;2022-11-25T17:17:32;5.13;88.69
68026;SHT31;54819;48.030;14.710;2022-11-25T17:20:00;5.14;88.64
68026;SHT31;54819;48.030;14.710;2022-11-25T17:22:29;5.15;88.68
68026;SHT31;54819;48.030;14.710;2022-11-25T17:25:04;5.14;88.75
68026;SHT31;54819;48.030;14.710;2022-11-25T17:27:33;5.12;88.84
68026;SHT31;54819;48.030;14.710;2022-11-25T17:30:01;5.14;88.92
68026;SHT31;54819;48.030;14.710;2022-11-25T17:32:32;5.15;89.00
68026;SHT31;54819;48.030;14.710;2022-11-25T17:35:01;5.16;89.05
68026;SHT31;54819;48.030;14.710;2022-11-25T17:37:30;5.17;89.03
68026;SHT31;54819;48.030;14.710;2022-11-25T17:39:59;5.16;89.02
68026;SHT31;54819;48.030;14.710;2022-11-25T17:42:26;5.14;88.91
68026;SHT31;54819;48.030;14.710;2022-11-25T17:44:57;5.11;88.84
68026;SHT31;54819;48.030;14.710;2022-11-25T17:47:25;5.06;88.87
68026;SHT31;54819;48.030;14.710;2022-11-25T17:49:52;5.00;88.79
68026;SHT31;54819;48.030;14.710;2022-11-25T17:52:19;4.95;88.89
68026;SHT31;54819;48.030;14.710;2022-11-25T17:54:46;4.97;88.88
68026;SHT31;54819;48.030;14.710;2022-11-25T17:57:14;5.00;88.90
68026;SHT31;54819;48.030;14.710;2022-11-25T17:59:46;5.02;88.91
68026;SHT31;54819;48.030;14.710;2022-11-25T18:02:18;5.03;89.11
68026;SHT31;54819;48.030;14.710;2022-11-25T18:04:47;5.03;89.14
68026;SHT31;54819;48.030;14.710;2022-11-25T18:07:15;5.05;89.10
68026;SHT31;54819;48.030;14.710;2022-11-25T18:09:43;5.04;89.01
68026;SHT31;54819;48.030;14.710;2022-11-25T18:12:15;5.04;88.91
68026;SHT31;54819;48.030;14.710;2022-11-25T18:14:53;5.01;88.90
68026;SHT31;54819;48.030;14.710;2022-11-25T18:17:21;4.99;88.82
68026;SHT31;54819;48.030;14.710;2022-11-25T18:19:48;5.01;88.78
68026;SHT31;54819;48.030;14.710;2022-11-25T18:22:20;5.01;88.83
68026;SHT31;54819;48.030;14.710;2022-11-25T18:24:49;5.00;88.90
68026;SHT31;54819;48.030;14.710;2022-11-25T18:27:24;4.97;88.91
68026;SHT31;54819;48.030;14.710;2022-11-25T18:29:54;4.93;88.91
68026;SHT31;54819;48.030;14.710;2022-11-25T18:32:23;4.90;88.93
68026;SHT31;54819;48.030;14.710;2022-11-25T18:34:51;4.89;88.90
68026;SHT31;54819;48.030;14.710;2022-11-25T18:37:18;4.86;88.98
68026;SHT31;54819;48.030;14.710;2022-11-25T18:39:44;4.87;88.88
68026;SHT31;54819;48.030;14.710;2022-11-25T18:42:22;4.84;88.92